createdAt,value
2019-03-03T00:03:00.754Z,96293.00
2019-03-03T00:08:03.108Z,96288.00
2019-03-03T00:13:07.852Z,96294.00
2019-03-03T00:18:10.433Z,96285.00
2019-03-03T00:23:13.531Z,96277.00
2019-03-03T00:28:16.004Z,96285.00
2019-03-03T00:33:18.461Z,96278.00
2019-03-03T00:38:50.148Z,96278.00
2019-03-03T00:44:30.432Z,96274.00
2019-03-03T00:49:50.855Z,96276.00
2019-03-03T00:55:11.892Z,96290.00
2019-03-03T01:00:32.418Z,96280.00
2019-03-03T01:05:44.097Z,96286.00
2019-03-03T01:10:56.347Z,96272.00
2019-03-03T01:16:27.269Z,96284.00
2019-03-03T01:21:37.915Z,96281.00
2019-03-03T01:26:40.395Z,96285.00
2019-03-03T01:31:43.160Z,96290.00
2019-03-03T01:36:46.129Z,96283.00
2019-03-03T01:41:48.468Z,96289.00
2019-03-03T01:46:50.896Z,96284.00
2019-03-03T01:51:53.302Z,96277.00
2019-03-03T01:56:56.061Z,96247.00
2019-03-03T02:01:58.739Z,96266.00
2019-03-03T02:07:01.057Z,96262.00
2019-03-03T02:12:03.475Z,96260.00
2019-03-03T02:17:07.555Z,96264.00
2019-03-03T02:22:10.082Z,96268.00
2019-03-03T02:27:13.535Z,96266.00
2019-03-03T02:32:15.962Z,96255.00
2019-03-03T02:37:18.420Z,96248.00
2019-03-03T02:42:20.928Z,96245.00
2019-03-03T02:47:23.328Z,96255.00
2019-03-03T02:52:25.761Z,96257.00
2019-03-03T02:57:28.365Z,96210.00
2019-03-03T03:02:50.247Z,96258.00
2019-03-03T03:08:02.556Z,96257.00
2019-03-03T03:13:32.994Z,96256.00
2019-03-03T03:18:53.326Z,96254.00
2019-03-03T03:24:14.155Z,96249.00
2019-03-03T03:29:38.993Z,96251.00
2019-03-03T03:35:03.973Z,96251.00
2019-03-03T03:40:16.929Z,96254.00
2019-03-03T03:45:47.642Z,96255.00
2019-03-03T03:51:09.553Z,96248.00
2019-03-03T03:56:24.619Z,96255.00
2019-03-03T04:01:49.252Z,96250.00
2019-03-03T04:07:03.676Z,96242.00
2019-03-03T04:12:15.917Z,96238.00
2019-03-03T04:17:28.190Z,96235.00
2019-03-03T04:22:51.979Z,96239.00
2019-03-03T04:28:12.771Z,96220.00
2019-03-03T04:33:34.639Z,96234.00
2019-03-03T04:39:02.266Z,96222.00
2019-03-03T04:44:20.813Z,96209.00
2019-03-03T04:49:36.651Z,96214.00
2019-03-03T04:54:53.328Z,96212.00
2019-03-03T05:00:15.289Z,96218.00
2019-03-03T05:05:33.402Z,96215.00
2019-03-03T05:10:53.991Z,96211.00
2019-03-03T05:16:33.881Z,96206.00
2019-03-03T05:21:36.309Z,96206.00
2019-03-03T05:26:38.707Z,96207.00
2019-03-03T05:31:42.159Z,96207.00
2019-03-03T05:36:44.517Z,96189.00
2019-03-03T05:41:46.951Z,96200.00
2019-03-03T05:46:50.249Z,96196.00
2019-03-03T05:51:52.611Z,96189.00
2019-03-03T05:56:55.307Z,96188.00
2019-03-03T06:01:57.789Z,96186.00
2019-03-03T06:07:00.299Z,96204.00
2019-03-03T06:12:02.711Z,96199.00
2019-03-03T06:17:05.152Z,96193.00
2019-03-03T06:22:07.943Z,96190.00
2019-03-03T06:27:10.552Z,96187.00
2019-03-03T06:32:13.302Z,96185.00
2019-03-03T06:37:18.166Z,96192.00
2019-03-03T06:42:21.387Z,96195.00
2019-03-03T06:47:24.614Z,96198.00
2019-03-03T06:52:26.996Z,96202.00
2019-03-03T06:57:29.623Z,96186.00
2019-03-03T07:02:32.056Z,96200.00
2019-03-03T07:07:34.511Z,96194.00
2019-03-03T07:12:37.179Z,96203.00
2019-03-03T07:17:39.552Z,96196.00
2019-03-03T07:22:42.183Z,96190.00
2019-03-03T07:27:44.582Z,96189.00
2019-03-03T07:32:51.734Z,96186.00
2019-03-03T07:37:54.109Z,96196.00
2019-03-03T07:42:56.506Z,96199.00
2019-03-03T07:47:59.108Z,96204.00
2019-03-03T07:53:01.495Z,96204.00
2019-03-03T07:58:04.172Z,96202.00
2019-03-03T08:03:06.869Z,96205.00
2019-03-03T08:08:09.418Z,96208.00
2019-03-03T08:13:12.260Z,96194.00
2019-03-03T08:18:15.775Z,96201.00
2019-03-03T08:23:18.105Z,96196.00
2019-03-03T08:28:21.624Z,96198.00
2019-03-03T08:33:27.432Z,96183.00
2019-03-03T08:38:29.984Z,96192.00
2019-03-03T08:43:38.703Z,96164.00
2019-03-03T08:48:58.090Z,96177.00
2019-03-03T08:54:09.829Z,96177.00
2019-03-03T08:59:30.463Z,96166.00
2019-03-03T09:04:55.285Z,96162.00
2019-03-03T09:10:04.972Z,96172.00
2019-03-03T09:15:33.419Z,96150.00
2019-03-03T09:21:04.291Z,96165.00
2019-03-03T09:26:29.336Z,96179.00
2019-03-03T09:32:00.497Z,96171.00
2019-03-03T09:37:16.096Z,96169.00
2019-03-03T09:42:35.577Z,96193.00
2019-03-03T09:47:44.788Z,96188.00
2019-03-03T09:53:10.883Z,96197.00
2019-03-03T09:58:31.540Z,96184.00
2019-03-03T10:03:54.571Z,96180.00
2019-03-03T10:09:12.517Z,96187.00
2019-03-03T10:14:39.827Z,96165.00
2019-03-03T10:20:09.842Z,96177.00
2019-03-03T10:25:39.999Z,96188.00
2019-03-03T10:30:51.015Z,96174.00
2019-03-03T10:36:13.001Z,96164.00
2019-03-03T10:41:33.655Z,96171.00
2019-03-03T10:46:56.444Z,96148.00
2019-03-03T10:52:14.655Z,96195.00
2019-03-03T10:57:35.304Z,96194.00
2019-03-03T11:02:48.335Z,96198.00
2019-03-03T11:08:22.925Z,96175.00
2019-03-03T11:13:54.103Z,96171.00
2019-03-03T11:19:22.218Z,96150.00
2019-03-03T11:24:44.659Z,96143.00
2019-03-03T11:30:06.664Z,96155.00
2019-03-03T11:35:26.285Z,96120.00
2019-03-03T11:40:38.145Z,96125.00
2019-03-03T11:46:05.933Z,96123.00
2019-03-03T11:51:16.883Z,95946.00
2019-03-03T11:56:28.847Z,96110.00
2019-03-03T12:01:50.293Z,96114.00
2019-03-03T12:07:10.742Z,96115.00
2019-03-03T12:12:30.998Z,96102.00
2019-03-03T12:18:01.551Z,96111.00
2019-03-03T12:23:23.539Z,96103.00
2019-03-03T12:28:59.577Z,96105.00
2019-03-03T12:34:35.267Z,96091.00
2019-03-03T12:39:43.336Z,96081.00
2019-03-03T12:45:08.321Z,96087.00
2019-03-03T12:50:28.972Z,96070.00
2019-03-03T12:55:48.309Z,96063.00
2019-03-03T13:01:09.576Z,96066.00
2019-03-03T13:06:40.678Z,96036.00
2019-03-03T13:12:02.608Z,96014.00
2019-03-03T13:17:18.551Z,96023.00
2019-03-03T13:22:40.630Z,96011.00
2019-03-03T13:28:01.033Z,95993.00
2019-03-03T13:33:13.822Z,95996.00
2019-03-03T13:38:35.748Z,95981.00
2019-03-03T13:43:38.153Z,95977.00
2019-03-03T13:48:40.535Z,95971.00
2019-03-03T13:53:43.339Z,95964.00
2019-03-03T13:59:03.379Z,95958.00
2019-03-03T14:04:05.760Z,95957.00
2019-03-03T14:09:08.976Z,95965.00
2019-03-03T14:14:11.873Z,95947.00
2019-03-03T14:19:14.219Z,95935.00
2019-03-03T14:24:17.088Z,95940.00
2019-03-03T14:29:19.557Z,95936.00
2019-03-03T14:34:22.171Z,95935.00
2019-03-03T14:39:28.228Z,95930.00
2019-03-03T14:44:31.364Z,95922.00
2019-03-03T14:49:34.034Z,95910.00
2019-03-03T14:54:36.461Z,95902.00
2019-03-03T14:59:38.927Z,95883.00
2019-03-03T15:04:41.482Z,95883.00
2019-03-03T15:09:45.626Z,95885.00
2019-03-03T15:14:48.016Z,95878.00
2019-03-03T15:19:51.432Z,95889.00
2019-03-03T15:24:53.882Z,95870.00
2019-03-03T15:29:56.257Z,95876.00
2019-03-03T15:34:58.851Z,95864.00
2019-03-03T15:40:01.652Z,95873.00
2019-03-03T15:45:06.041Z,95871.00
2019-03-03T15:50:11.635Z,95860.00
2019-03-03T15:55:25.869Z,95855.00
2019-03-03T16:00:32.400Z,95852.00
2019-03-03T16:05:39.253Z,95853.00
2019-03-03T16:10:42.249Z,95845.00
2019-03-03T16:15:44.885Z,95843.00
2019-03-03T16:20:48.203Z,95827.00
2019-03-03T16:25:50.916Z,95832.00
2019-03-03T16:30:54.334Z,95836.00
2019-03-03T16:35:56.799Z,95850.00
2019-03-03T16:40:59.338Z,95847.00
2019-03-03T16:46:02.013Z,95836.00
2019-03-03T16:51:04.429Z,95844.00
2019-03-03T16:56:08.474Z,95833.00
2019-03-03T17:01:10.845Z,95832.00
2019-03-03T17:06:17.208Z,95827.00
2019-03-03T17:11:29.463Z,95811.00
2019-03-03T17:16:33.257Z,95806.00
2019-03-03T17:21:35.777Z,95797.00
2019-03-03T17:26:38.445Z,95801.00
2019-03-03T17:31:41.470Z,95789.00
2019-03-03T17:36:43.906Z,95791.00
2019-03-03T17:41:46.645Z,95793.00
2019-03-03T17:46:49.617Z,95790.00
2019-03-03T17:51:53.931Z,95776.00
2019-03-03T17:56:56.402Z,95783.00
2019-03-03T18:01:59.336Z,95774.00
2019-03-03T18:07:03.177Z,95764.00
2019-03-03T18:12:06.538Z,95756.00
2019-03-03T18:17:20.602Z,95756.00
2019-03-03T18:33:32.172Z,95736.00
2019-03-03T18:39:03.128Z,95736.00
2019-03-03T18:44:07.691Z,95738.00
2019-03-03T18:49:10.067Z,95724.00
2019-03-03T18:54:13.225Z,95719.00
2019-03-03T18:59:15.852Z,95718.00
2019-03-03T19:04:18.401Z,95722.00
2019-03-03T19:09:21.768Z,95708.00
2019-03-03T19:14:28.209Z,95705.00
2019-03-03T19:19:28.501Z,95707.00
2019-03-03T19:24:31.325Z,95704.00
2019-03-03T19:29:33.991Z,95498.00
2019-03-03T19:34:37.115Z,95709.00
2019-03-03T19:39:39.661Z,95715.00
2019-03-03T19:44:42.327Z,95714.00
2019-03-03T19:49:44.844Z,95696.00
2019-03-03T19:54:47.692Z,95690.00
2019-03-03T19:59:52.611Z,95686.00
2019-03-03T20:04:56.274Z,95684.00
2019-03-03T20:09:58.864Z,95681.00
2019-03-03T20:15:01.581Z,95671.00
2019-03-03T20:20:06.310Z,95663.00
2019-03-03T20:25:08.921Z,95649.00
2019-03-03T20:30:15.287Z,95644.00
2019-03-03T20:35:17.921Z,95656.00
2019-03-03T20:40:21.469Z,95656.00
2019-03-03T20:45:24.441Z,95642.00
2019-03-03T20:50:28.480Z,95646.00
2019-03-03T20:55:31.106Z,95646.00
2019-03-03T21:00:35.720Z,95630.00
2019-03-03T21:05:39.172Z,95629.00
2019-03-03T21:10:41.942Z,95634.00
2019-03-03T21:15:45.339Z,95628.00
2019-03-03T21:20:47.907Z,95621.00
2019-03-03T21:25:50.363Z,95617.00
2019-03-03T21:30:53.178Z,95614.00
2019-03-03T21:35:57.393Z,95616.00
2019-03-03T21:41:00.160Z,95607.00
2019-03-03T21:46:04.791Z,95598.00
2019-03-03T21:56:51.812Z,95598.00
2019-03-03T22:01:54.470Z,95596.00
2019-03-03T22:06:58.363Z,95580.00
2019-03-03T22:12:01.216Z,95584.00
2019-03-03T22:17:03.951Z,95577.00
2019-03-03T22:22:06.406Z,95569.00
2019-03-03T22:27:09.216Z,95569.00
2019-03-03T22:32:11.916Z,95573.00
2019-03-03T22:37:14.727Z,95559.00
2019-03-03T22:42:18.837Z,95557.00
2019-03-03T22:47:22.143Z,95545.00
2019-03-03T22:52:24.683Z,95526.00
2019-03-03T22:57:27.619Z,95520.00
2019-03-03T23:02:30.419Z,95514.00
2019-03-03T23:08:09.531Z,95519.00
2019-03-03T23:14:02.606Z,95509.00
2019-03-03T23:19:42.820Z,95513.00
2019-03-03T23:25:42.212Z,95496.00
2019-03-03T23:30:44.691Z,95494.00
2019-03-03T23:35:47.353Z,95497.00
2019-03-03T23:40:49.801Z,95500.00
2019-03-03T23:45:52.426Z,95495.00
2019-03-03T23:50:55.029Z,95485.00
2019-03-03T23:55:57.437Z,95481.00
